• Join FlightAware (Why Join?)
  • Login
  • US Flag 
02:50AM EDT


 

Airport Tracker/Info


-or-


 

Live Flight TrackerFlight Track Log ✈ N199ML ✈ 24-Feb-2012 ✈ KABQ - KBJC

Flight Track Log - Related Links

Times and Time Zones

All times are in EST time to prevent confusion due to time zone crossing. See the N199ML flight status page for this flight to view local times or setup timezone preferences in your user account.

Time Position Orientation Groundspeed Altitude Reporting Facility
EST Latitude Longitude Course Direction KTS MPH feet Rate Location/Type
06:43PM 35.1019 -106.5539 331° Northwest 239 275 10,000  Level Albuquerque Center
06:45PM 35.1711 -106.6014 21° North 266 306 12,900 2,220 Climbing Albuquerque Center
06:46PM 35.2314 -106.5731 42° Northeast 216 249 14,900 1,980 Climbing Albuquerque Center
06:47PM 35.2853 -106.5139 21° North 224 258 16,900 1,860 Climbing Albuquerque Center
06:48PM 35.3475 -106.4853 15° North 237 273 18,700 1,800 Climbing Albuquerque Center
06:49PM 35.4058 -106.4667 14° North 237 273 20,600 2,040 Climbing Albuquerque Center
06:50PM 35.4747 -106.4456 16° North 237 273 22,800 1,800 Climbing Albuquerque Center
06:51PM 35.5433 -106.4217 14° North 243 280 24,200 1,380 Climbing Albuquerque Center
06:52PM 35.6119 -106.4006 15° North 248 285 25,600 1,440 Climbing Albuquerque Center
06:53PM 35.6786 -106.3792 15° North 261 300 27,100 1,500 Climbing Albuquerque Center
06:54PM 35.7575 -106.3528 16° North 261 300 28,700 1,500 Climbing Albuquerque Center
06:55PM 35.8264 -106.3289 16° North 261 300 30,100 1,260 Climbing Albuquerque Center
06:56PM 35.8969 -106.3047 16° North 261 300 31,300 1,020 Climbing Albuquerque Center
06:57PM 35.9739 -106.2781 12° North 267 307 32,200 840 Climbing Albuquerque Center
06:58PM 36.0531 -106.2564 16° North 274 315 33,000 780 Climbing Albuquerque Center
06:59PM 36.1281 -106.2297 16° North 279 321 33,800 780 Climbing Albuquerque Center
07:00PM 36.1944 -106.2056 14° North 279 321 34,600 360 Climbing Albuquerque Center
07:01PM 36.3500 -106.1561 13° North 303 349 35,000 120 Climbing Denver Center
07:02PM 36.4353 -106.1325 North 303 349 35,000  Level Denver Center
07:03PM 36.5206 -106.1192 10° North 303 349 35,000  Level Denver Center
07:04PM 36.6081 -106.1008 11° North 309 356 35,000  Level Denver Center
07:05PM 36.6956 -106.0797 10° North 314 361 35,000  Level Denver Center
07:06PM 36.7892 -106.0583 10° North 304 350 35,000  Level Denver Center
07:07PM 36.8703 -106.0397 11° North 299 344 35,000  Level Denver Center
07:08PM 36.9475 -106.0214 North 304 350 35,000 -300 Level Denver Center
07:09PM 37.0347 -106.0053 10° North 314 361 34,400 -540 Descending Denver Center
07:10PM 37.1286 -105.9836 10° North 314 361 34,000 -240 Descending Denver Center
07:11PM 37.2119 -105.9650 10° North 314 361 34,000  Level Denver Center
07:12PM 37.2992 -105.9461 10° North 309 356 34,000  Level Denver Center
07:13PM 37.3742 -105.9297 North 309 356 34,000 -240 Level Denver Center
07:14PM 37.4681 -105.9108 North 309 356 33,600 -540 Descending Denver Center
07:15PM 37.5575 -105.8944 11° North 309 356 33,000 -300 Descending Denver Center
07:16PM 37.6344 -105.8756 10° North 322 371 33,000 -360 Level Denver Center
07:17PM 37.7239 -105.8564 North 316 364 32,300 -540 Descending Denver Center
07:18PM 37.8219 -105.8372 10° North 316 364 32,000 -180 Descending Denver Center
07:19PM 37.9072 -105.8181 10° North 316 364 32,000  Level Denver Center
07:20PM 37.9842 -105.8017 10° North 316 364 32,000  Level Denver Center
07:21PM 38.0717 -105.7822 10° North 310 357 32,000  Level Denver Center
07:22PM 38.1694 -105.7603 10° North 318 366 32,000  Level Denver Center
07:23PM 38.2528 -105.7408 North 313 360 32,000 -360 Level Denver Center
07:24PM 38.3319 -105.7242 13° North 319 367 31,300 -900 Descending Denver Center
07:25PM 38.4278 -105.6967 10° North 313 360 30,300 -1,020 Descending Denver Center
07:26PM 38.5150 -105.6772 10° North 313 360 29,300 -1,020 Descending Denver Center
07:27PM 38.6006 -105.6575 North 313 360 28,300 -1,020 Descending Denver Center
07:28PM 38.6878 -105.6406 North 313 360 27,300 -960 Descending Denver Center
07:29PM 38.7733 -105.6236 North 313 360 26,400 -1,200 Descending Denver Center
07:30PM 38.8689 -105.6039 10° North 323 372 25,000 -1,320 Descending Denver Center
07:31PM 38.9544 -105.5842 11° North 316 364 23,800 -1,200 Descending Denver Center
07:32PM 39.0356 -105.5644 North 301 346 22,600 -1,380 Descending Denver Center
07:33PM 39.1064 -105.5500 12° North 289 333 21,100 -1,560 Descending Denver Center
07:34PM 39.1875 -105.5275 10° North 294 338 19,500 -1,740 Descending Denver Center
07:35PM 39.2664 -105.5103 10° North 294 338 17,700 -1,860 Descending Denver Center
07:36PM 39.3436 -105.4933 26° Northeast 289 333 15,800 -1,320 Descending Denver Center
07:37PM 39.4181 -105.4464 53° Northeast 277 319 15,100 -420 Descending Denver Center
07:38PM 39.4694 -105.3569 54° Northeast 278 320 15,000 -420 Descending Denver Center
07:39PM 39.5186 -105.2700 23° Northeast 301 346 14,300 -780 Descending Denver Center
07:40PM 39.5850 -105.2339 North 268 308 13,500 -1,200 Descending Denver Center
07:41PM 39.6600 -105.2217 70° East 253 291 11,900 -1,740 Descending Denver Center
07:42PM 39.6839 -105.1350 60° Northeast 218 251 10,100 -1,500 Descending Denver Center
07:43PM 39.7144 -105.0669 North 218 251 9,000 -1,080 Descending Denver Center
07:44PM 39.7686 -105.0631 North 191 220 8,000 -960 Descending Denver Center
07:45PM 39.8247 -105.0619 344° North 199 229 7,100 -720 Descending Denver Center
07:47PM 39.8833 -105.0833 344° North 121 139 6,100 -600 Descending Denver TRACON